Time;durP1;ratioP1;P1;durP2;ratioP2;P2;SDS_P1;SDS_P2;PMS_P1;PMS_P2;Temp;Humidity;BMP_temperature;BMP_pressure;BME280_temperature;BME280_humidity;BME280_pressure;Samples;Min_cycle;Max_cycle;Signal;HPM_P1;HPM_P2
2023/09/14 00:02:07;;;;;;;19.70;17.67;;;20.50;99.90;;;;;;4999866;28;20228;-70
2023/09/14 00:04:55;;;;;;;19.88;17.60;;;20.50;99.90;;;;;;4996034;27;20841;-71
2023/09/14 00:07:44;;;;;;;20.73;18.10;;;20.40;99.90;;;;;;5005892;28;20737;-71
2023/09/14 00:10:35;;;;;;;19.60;17.50;;;20.40;99.90;;;;;;5002827;28;20714;-72
2023/09/14 00:13:24;;;;;;;19.05;17.13;;;20.40;99.90;;;;;;4999304;28;20226;-72
2023/09/14 00:16:13;;;;;;;22.73;17.48;;;20.30;99.90;;;;;;5011090;28;20211;-72
2023/09/14 00:19:02;;;;;;;21.08;17.60;;;20.40;99.90;;;;;;5004183;28;20305;-71
2023/09/14 00:21:52;;;;;;;20.98;18.77;;;20.40;99.90;;;;;;5008496;28;20719;-71
2023/09/14 00:24:41;;;;;;;23.60;18.02;;;20.40;99.90;;;;;;5009589;28;20233;-71
2023/09/14 00:27:32;;;;;;;22.92;18.02;;;20.30;99.90;;;;;;5008249;28;20262;-71
2023/09/14 00:30:22;;;;;;;20.80;18.65;;;20.30;99.90;;;;;;5016075;28;20226;-71
2023/09/14 00:33:11;;;;;;;21.15;18.45;;;20.20;99.90;;;;;;5012179;28;20695;-71
2023/09/14 00:36:00;;;;;;;20.48;18.27;;;20.20;99.90;;;;;;5014622;28;20218;-71
2023/09/14 00:38:49;;;;;;;20.45;17.42;;;20.20;99.90;;;;;;4996373;28;20364;-71
2023/09/14 00:41:38;;;;;;;20.83;18.63;;;20.20;99.90;;;;;;5000203;27;20290;-72
2023/09/14 00:44:29;;;;;;;21.17;18.20;;;20.20;99.90;;;;;;5002161;28;20265;-71
2023/09/14 00:47:18;;;;;;;20.38;18.20;;;20.10;99.90;;;;;;5009959;28;20366;-71
2023/09/14 00:50:08;;;;;;;21.10;18.90;;;20.20;99.90;;;;;;5014592;27;20253;-70
2023/09/14 00:53:00;;;;;;;20.15;18.05;;;20.20;99.90;;;;;;5012353;28;20234;-70
2023/09/14 00:55:49;;;;;;;22.02;18.83;;;20.10;99.90;;;;;;5080271;27;20304;-71
2023/09/14 00:58:38;;;;;;;20.92;18.67;;;20.20;99.90;;;;;;4998100;28;20244;-69
2023/09/14 01:01:30;;;;;;;20.10;18.10;;;20.20;99.90;;;;;;5011937;27;20241;-70
2023/09/14 01:04:19;;;;;;;21.77;18.42;;;20.10;99.90;;;;;;5022629;27;20232;-72
2023/09/14 01:07:08;;;;;;;21.25;17.88;;;20.10;99.90;;;;;;4996984;28;20218;-71
2023/09/14 01:09:58;;;;;;;21.45;17.40;;;20.20;99.90;;;;;;4992582;28;20226;-71
2023/09/14 01:12:48;;;;;;;21.70;18.00;;;20.20;99.90;;;;;;5026762;28;20229;-71
2023/09/14 01:15:44;;;;;;;20.95;18.33;;;20.20;99.90;;;;;;5007357;28;20313;-70
2023/09/14 01:18:41;;;;;;;21.67;17.50;;;20.20;99.90;;;;;;5000942;28;20229;-71
2023/09/14 01:22:00;;;;;;;21.08;18.35;;;20.20;99.90;;;;;;5006323;28;20229;-70
2023/09/14 01:24:58;;;;;;;19.30;17.40;;;20.20;99.90;;;;;;4984216;28;20776;-71
2023/09/14 01:27:48;;;;;;;18.45;16.50;;;20.20;99.90;;;;;;4992885;28;20983;-70
2023/09/14 01:30:37;;;;;;;21.20;17.63;;;20.10;99.90;;;;;;5004534;28;20366;-71
2023/09/14 01:33:29;;;;;;;20.02;17.15;;;20.10;99.90;;;;;;5008733;27;20218;-71
2023/09/14 01:36:24;;;;;;;20.73;18.27;;;20.20;99.90;;;;;;5019307;28;20270;-73
2023/09/14 01:39:14;;;;;;;21.13;17.92;;;20.20;99.90;;;;;;5020051;28;20253;-69
2023/09/14 01:42:04;;;;;;;19.63;17.38;;;20.20;99.90;;;;;;5002362;28;21384;-69
2023/09/14 01:44:55;;;;;;;18.90;16.67;;;20.20;99.90;;;;;;5075513;27;20233;-71
2023/09/14 01:47:46;;;;;;;19.17;17.27;;;20.10;99.90;;;;;;5056853;27;20218;-72
2023/09/14 01:50:35;;;;;;;19.00;17.10;;;20.20;99.90;;;;;;5052200;27;20222;-71
2023/09/14 01:53:24;;;;;;;21.48;17.45;;;20.30;99.90;;;;;;5083233;27;20731;-72
2023/09/14 01:56:12;;;;;;;19.80;16.33;;;20.10;99.90;;;;;;5004359;28;20229;-71
2023/09/14 01:59:02;;;;;;;18.77;16.17;;;20.20;99.90;;;;;;5078536;28;20260;-72
2023/09/14 02:01:52;;;;;;;17.80;16.00;;;20.20;99.90;;;;;;5024806;28;20909;-69
2023/09/14 02:04:41;;;;;;;17.88;16.15;;;20.20;99.90;;;;;;4993026;28;20234;-71
2023/09/14 02:07:30;;;;;;;17.42;15.18;;;20.20;99.90;;;;;;5081266;28;20222;-71
2023/09/14 02:10:21;;;;;;;17.58;15.63;;;20.20;99.90;;;;;;5083486;28;20701;-72
2023/09/14 02:13:10;;;;;;;19.60;16.48;;;20.20;99.90;;;;;;4997027;28;20222;-72
2023/09/14 02:16:00;;;;;;;17.88;15.15;;;20.10;99.90;;;;;;5074556;27;20222;-69
2023/09/14 02:18:50;;;;;;;17.23;15.35;;;20.10;99.90;;;;;;5004953;28;20732;-69
2023/09/14 02:21:39;;;;;;;16.95;15.15;;;20.10;99.90;;;;;;5006707;28;20609;-69
2023/09/14 02:24:29;;;;;;;16.98;14.30;;;20.10;99.90;;;;;;4998004;27;20242;-70
2023/09/14 02:27:18;;;;;;;17.60;15.45;;;20.10;99.90;;;;;;5002406;28;20309;-70
2023/09/14 02:30:08;;;;;;;16.77;14.98;;;20.20;99.90;;;;;;5022992;28;20232;-71
2023/09/14 02:32:57;;;;;;;18.60;14.18;;;20.10;99.90;;;;;;4987756;28;20242;-70
2023/09/14 02:35:50;;;;;;;17.90;14.82;;;20.10;99.90;;;;;;5049470;27;20217;-68
2023/09/14 02:38:40;;;;;;;15.57;13.93;;;20.10;99.90;;;;;;5014511;28;20312;-68
2023/09/14 02:41:29;;;;;;;16.98;14.32;;;20.10;99.90;;;;;;5007134;28;20226;-68
2023/09/14 02:44:18;;;;;;;16.27;14.32;;;20.10;99.90;;;;;;5005054;28;20234;-69
2023/09/14 02:47:07;;;;;;;17.02;14.10;;;20.10;99.90;;;;;;5008486;28;20218;-69
2023/09/14 02:49:56;;;;;;;17.45;13.75;;;20.10;99.90;;;;;;4992649;28;20229;-70
2023/09/14 02:52:46;;;;;;;14.45;12.93;;;20.10;99.90;;;;;;5116749;27;20222;-68
2023/09/14 02:55:35;;;;;;;14.05;12.60;;;20.10;99.90;;;;;;5112905;28;20233;-69
2023/09/14 02:58:24;;;;;;;14.20;12.75;;;20.00;99.90;;;;;;5111265;27;20262;-69
2023/09/14 03:01:13;;;;;;;14.90;12.55;;;20.00;99.90;;;;;;5117894;27;20815;-71
2023/09/14 03:04:03;;;;;;;14.05;12.00;;;20.10;99.90;;;;;;5110341;28;20662;-71
2023/09/14 03:06:53;;;;;;;12.90;11.40;;;20.00;99.90;;;;;;5116291;27;20218;-70
2023/09/14 03:09:44;;;;;;;13.85;11.93;;;20.00;99.90;;;;;;5114031;27;20624;-71
2023/09/14 03:12:33;;;;;;;15.30;11.73;;;20.00;99.90;;;;;;5110631;27;20608;-69
2023/09/14 03:15:22;;;;;;;13.07;11.77;;;20.00;99.90;;;;;;5127708;27;20579;-72
2023/09/14 03:18:11;;;;;;;13.07;11.73;;;20.00;99.90;;;;;;5069344;27;20246;-71
2023/09/14 03:21:00;;;;;;;13.23;11.90;;;20.00;99.90;;;;;;5032465;28;20725;-69
2023/09/14 03:23:49;;;;;;;14.15;12.65;;;20.00;99.90;;;;;;5039437;28;20238;-70
2023/09/14 03:26:40;;;;;;;13.02;11.10;;;20.00;99.90;;;;;;4991347;28;20230;-69
2023/09/14 03:29:29;;;;;;;13.52;11.13;;;19.90;99.90;;;;;;5001665;27;20234;-70
2023/09/14 03:32:18;;;;;;;12.63;11.30;;;19.90;99.90;;;;;;4999686;28;20226;-73
2023/09/14 03:35:08;;;;;;;14.38;11.38;;;19.90;99.90;;;;;;5082143;27;20222;-71
2023/09/14 03:37:57;;;;;;;11.48;10.35;;;19.90;99.90;;;;;;4989766;28;20266;-70
2023/09/14 03:40:46;;;;;;;12.85;10.60;;;19.80;99.90;;;;;;5010087;27;20226;-70
2023/09/14 03:43:36;;;;;;;11.32;10.23;;;19.90;99.90;;;;;;5042555;27;20237;-70
2023/09/14 03:46:26;;;;;;;11.80;10.25;;;19.90;99.90;;;;;;5085431;27;20224;-71
2023/09/14 03:49:15;;;;;;;12.60;10.43;;;19.90;99.90;;;;;;5087659;27;20697;-70
2023/09/14 03:52:04;;;;;;;11.05;9.95;;;19.90;99.90;;;;;;4991438;28;20226;-70
2023/09/14 03:54:54;;;;;;;10.52;9.60;;;19.90;99.90;;;;;;5076132;27;20265;-70
2023/09/14 03:57:47;;;;;;;12.07;10.73;;;19.90;99.90;;;;;;5092666;27;20891;-69
2023/09/14 04:00:39;;;;;;;11.45;10.35;;;19.90;99.90;;;;;;5000392;27;20233;-70
2023/09/14 04:03:28;;;;;;;14.35;10.35;;;19.90;99.90;;;;;;4993863;28;20222;-66
2023/09/14 04:06:18;;;;;;;12.40;10.38;;;19.80;99.90;;;;;;5085152;27;20257;-69
2023/09/14 04:09:06;;;;;;;13.38;9.27;;;19.80;99.90;;;;;;4997038;28;21065;-69
2023/09/14 04:11:55;;;;;;;11.93;9.70;;;19.80;99.90;;;;;;5003481;28;20225;-70
2023/09/14 04:14:44;;;;;;;9.75;8.85;;;19.90;99.90;;;;;;5080812;27;20225;-69
2023/09/14 04:17:34;;;;;;;10.07;9.07;;;19.80;99.90;;;;;;5084066;27;20225;-68
2023/09/14 04:20:23;;;;;;;10.13;9.02;;;19.80;99.90;;;;;;5004950;28;20218;-71
2023/09/14 04:23:12;;;;;;;10.60;8.38;;;19.80;99.90;;;;;;5084943;27;20230;-69
2023/09/14 04:26:01;;;;;;;9.30;8.38;;;19.90;99.90;;;;;;5010902;28;20270;-69
2023/09/14 04:28:52;;;;;;;9.20;7.70;;;19.90;99.90;;;;;;5014660;28;20343;-69
2023/09/14 04:31:41;;;;;;;8.95;7.93;;;19.80;99.90;;;;;;4997205;28;20256;-70
2023/09/14 04:34:32;;;;;;;10.32;6.90;;;19.80;99.90;;;;;;4992673;28;20638;-69
2023/09/14 04:37:21;;;;;;;11.02;7.28;;;19.90;99.90;;;;;;5004520;28;20701;-71
2023/09/14 04:40:11;;;;;;;9.52;7.22;;;19.90;99.90;;;;;;5009849;28;20221;-70
2023/09/14 04:43:00;;;;;;;9.07;7.40;;;19.80;99.90;;;;;;5080288;27;21196;-69
2023/09/14 04:45:49;;;;;;;8.93;7.75;;;19.80;99.90;;;;;;5014439;28;20225;-70
2023/09/14 04:48:38;;;;;;;8.18;7.35;;;19.70;99.90;;;;;;5076492;27;21810;-70
2023/09/14 04:51:29;;;;;;;8.02;7.15;;;19.70;99.90;;;;;;5010760;28;20233;-71
2023/09/14 04:54:18;;;;;;;7.70;6.90;;;19.70;99.90;;;;;;5007451;28;20230;-70
2023/09/14 04:57:06;;;;;;;8.40;7.03;;;19.70;99.90;;;;;;5004680;28;20283;-70
2023/09/14 04:59:56;;;;;;;10.32;6.55;;;19.60;99.90;;;;;;4992519;28;20234;-70
2023/09/14 05:02:46;;;;;;;6.97;6.28;;;19.70;99.90;;;;;;5005408;28;20317;-70
2023/09/14 05:05:35;;;;;;;9.38;6.30;;;19.70;99.90;;;;;;5011690;28;20232;-69
2023/09/14 05:08:27;;;;;;;7.63;6.72;;;19.60;99.90;;;;;;4998051;28;20237;-70
2023/09/14 05:11:17;;;;;;;7.63;6.25;;;19.70;99.90;;;;;;5070181;27;20254;-71
2023/09/14 05:14:06;;;;;;;9.00;6.28;;;19.70;99.90;;;;;;5076775;27;20254;-70
2023/09/14 05:16:55;;;;;;;6.70;6.00;;;19.70;99.90;;;;;;4998687;28;20251;-69
2023/09/14 05:19:45;;;;;;;8.77;6.10;;;19.70;99.90;;;;;;5025520;28;20220;-71
2023/09/14 05:22:33;;;;;;;8.65;5.78;;;19.70;99.90;;;;;;5082644;27;20264;-69
2023/09/14 05:25:25;;;;;;;6.43;5.53;;;19.70;99.90;;;;;;4996429;28;20226;-70
2023/09/14 05:28:15;;;;;;;6.95;5.95;;;19.70;99.90;;;;;;5076480;27;20223;-69
2023/09/14 05:31:06;;;;;;;6.47;5.53;;;19.60;99.90;;;;;;5007617;28;20383;-70
2023/09/14 05:33:55;;;;;;;7.50;5.80;;;19.60;99.90;;;;;;5076587;27;20217;-72
2023/09/14 05:36:44;;;;;;;8.38;5.30;;;19.70;99.90;;;;;;5089348;27;20232;-71
2023/09/14 05:39:33;;;;;;;8.00;5.15;;;19.80;99.90;;;;;;4999267;28;20302;-70
2023/09/14 05:42:23;;;;;;;5.65;5.03;;;19.80;99.90;;;;;;5078545;27;20703;-71
2023/09/14 05:45:13;;;;;;;4.78;4.35;;;19.80;99.90;;;;;;5010366;28;20691;-72
2023/09/14 05:48:05;;;;;;;7.95;5.22;;;19.80;99.90;;;;;;5091439;27;20712;-69
2023/09/14 05:50:54;;;;;;;5.93;4.60;;;19.80;99.90;;;;;;5003628;28;20878;-68
2023/09/14 05:53:44;;;;;;;7.40;4.68;;;19.90;99.90;;;;;;5004309;28;20350;-69
2023/09/14 05:56:34;;;;;;;7.93;4.53;;;19.90;99.90;;;;;;5012751;28;20217;-68
2023/09/14 05:59:25;;;;;;;6.18;4.10;;;19.90;99.90;;;;;;5078256;28;20229;-70
2023/09/14 06:02:23;;;;;;;6.07;4.30;;;19.90;99.90;;;;;;5014827;28;20570;-69
2023/09/14 06:05:13;;;;;;;9.02;4.28;;;19.70;99.90;;;;;;4998782;28;20241;-70
2023/09/14 06:08:16;;;;;;;4.82;4.13;;;19.70;99.90;;;;;;5080933;28;20308;-67
2023/09/14 06:11:06;;;;;;;6.03;3.83;;;19.90;99.90;;;;;;5078688;28;20233;-68
2023/09/14 06:13:55;;;;;;;7.00;4.03;;;19.90;99.90;;;;;;5075500;27;20224;-70
2023/09/14 06:16:46;;;;;;;6.97;3.75;;;19.90;99.90;;;;;;5006074;28;20226;-71
2023/09/14 06:19:34;;;;;;;6.78;4.18;;;19.90;99.90;;;;;;4993994;28;20229;-70
2023/09/14 06:22:23;;;;;;;6.72;3.90;;;19.90;99.90;;;;;;5048200;28;20213;-70
2023/09/14 06:25:12;;;;;;;7.13;3.60;;;19.80;99.90;;;;;;4998576;28;20222;-68
2023/09/14 06:28:01;;;;;;;12.48;4.22;;;19.80;99.90;;;;;;5012436;28;20347;-67
2023/09/14 06:30:50;;;;;;;12.25;3.85;;;19.90;99.90;;;;;;5023752;28;20360;-69
2023/09/14 06:33:40;;;;;;;5.95;3.55;;;19.80;99.90;;;;;;5005504;27;20716;-67
2023/09/14 06:36:30;;;;;;;8.18;3.97;;;19.90;99.90;;;;;;5026350;28;20229;-68
2023/09/14 06:39:19;;;;;;;6.43;3.70;;;20.00;99.90;;;;;;5014328;28;20248;-69
2023/09/14 06:42:07;;;;;;;22.80;14.65;;;20.40;99.90;;;;;;5015172;28;20624;-68
2023/09/14 06:44:57;;;;;;;9.57;7.15;;;20.60;99.90;;;;;;5002082;27;20243;-70
2023/09/14 06:47:46;;;;;;;6.45;3.95;;;20.60;99.90;;;;;;5083415;27;20752;-71
2023/09/14 06:50:37;;;;;;;7.25;3.40;;;20.60;99.90;;;;;;5010134;28;20619;-72
2023/09/14 06:53:25;;;;;;;8.68;3.33;;;20.80;99.90;;;;;;5015699;28;20213;-71
2023/09/14 06:56:15;;;;;;;7.22;3.67;;;20.80;99.90;;;;;;5025184;27;20968;-71
2023/09/14 06:59:05;;;;;;;6.70;3.20;;;20.80;99.90;;;;;;4992128;28;20745;-71
2023/09/14 07:01:53;;;;;;;7.15;3.00;;;21.00;99.90;;;;;;5006886;28;20234;-71
2023/09/14 07:04:42;;;;;;;8.05;3.00;;;20.90;99.90;;;;;;5080568;27;20236;-72
2023/09/14 07:07:33;;;;;;;9.35;3.85;;;21.00;99.90;;;;;;5009634;28;20236;-73
2023/09/14 07:10:21;;;;;;;6.53;3.10;;;21.10;99.90;;;;;;5014107;28;20830;-73
2023/09/14 07:13:10;;;;;;;6.40;2.78;;;21.10;99.90;;;;;;5084900;27;20885;-75
2023/09/14 07:16:00;;;;;;;4.20;3.03;;;21.20;99.90;;;;;;5017631;27;20821;-74
2023/09/14 07:18:49;;;;;;;4.55;3.03;;;21.10;99.90;;;;;;5011549;27;20230;-75
2023/09/14 07:21:37;;;;;;;7.10;3.15;;;21.10;99.90;;;;;;4999877;28;20226;-73
2023/09/14 07:24:28;;;;;;;9.32;3.55;;;21.30;99.90;;;;;;5015500;27;20222;-71
2023/09/14 07:27:17;;;;;;;7.60;3.28;;;21.10;99.90;;;;;;5022846;27;20228;-74
2023/09/14 07:30:10;;;;;;;5.45;2.70;;;21.40;99.90;;;;;;5091047;27;20229;-72
2023/09/14 07:32:59;;;;;;;5.65;3.03;;;21.40;99.90;;;;;;5085237;27;20712;-75
2023/09/14 07:35:48;;;;;;;4.97;2.95;;;21.60;99.90;;;;;;5013508;28;20738;-72
2023/09/14 07:38:38;;;;;;;4.30;2.78;;;21.60;99.90;;;;;;5011332;27;20223;-71
2023/09/14 07:41:29;;;;;;;5.72;2.53;;;21.70;99.90;;;;;;5002307;28;20222;-71
2023/09/14 07:44:18;;;;;;;5.53;2.80;;;21.80;99.90;;;;;;5017334;27;20217;-69
2023/09/14 07:47:06;;;;;;;6.63;2.53;;;22.00;99.90;;;;;;4998698;28;20222;-70
2023/09/14 07:49:57;;;;;;;5.15;2.60;;;22.00;99.90;;;;;;4993583;27;20257;-72
2023/09/14 07:52:46;;;;;;;4.60;2.50;;;22.20;99.90;;;;;;5014183;28;20221;-72
2023/09/14 07:55:35;;;;;;;2.30;2.10;;;22.50;99.90;;;;;;5009218;28;20712;-70
2023/09/14 07:58:26;;;;;;;5.05;2.53;;;22.60;99.90;;;;;;5095723;27;20226;-71
2023/09/14 08:01:16;;;;;;;6.15;2.60;;;22.40;99.90;;;;;;5019652;27;20909;-74
2023/09/14 08:04:05;;;;;;;4.00;2.25;;;22.50;99.90;;;;;;5079814;27;20869;-72
2023/09/14 08:06:54;;;;;;;3.00;2.20;;;22.30;99.90;;;;;;5014902;27;20220;-71
2023/09/14 08:09:46;;;;;;;3.70;2.40;;;22.40;99.90;;;;;;5009707;27;20734;-70
2023/09/14 08:12:36;;;;;;;3.20;2.42;;;22.40;99.90;;;;;;5000438;28;20226;-72
2023/09/14 08:15:26;;;;;;;4.60;2.83;;;22.40;99.90;;;;;;5001660;27;20933;-73
2023/09/14 08:18:15;;;;;;;8.93;2.38;;;22.30;99.90;;;;;;5005641;28;20230;-73
2023/09/14 08:21:04;;;;;;;4.22;1.80;;;22.20;99.90;;;;;;5082485;27;20236;-74
2023/09/14 08:23:53;;;;;;;3.10;1.35;;;21.90;99.90;;;;;;4997239;28;20217;-72
2023/09/14 08:26:42;;;;;;;2.47;1.23;;;22.00;99.90;;;;;;5009091;28;20708;-75
2023/09/14 08:29:31;;;;;;;3.65;1.30;;;22.00;99.90;;;;;;5095543;27;20261;-72
2023/09/14 08:32:22;;;;;;;3.15;1.52;;;21.80;99.90;;;;;;5073783;27;20575;-74
2023/09/14 08:35:40;;;;;;;2.85;1.35;;;22.40;99.90;;;;;;5003044;28;20863;-74
2023/09/14 08:38:29;;;;;;;2.13;1.45;;;23.40;99.90;;;;;;5007924;28;20245;-73
2023/09/14 08:41:28;;;;;;;2.47;1.40;;;23.50;99.90;;;;;;5073684;27;20309;-74
2023/09/14 08:44:19;;;;;;;4.28;1.38;;;23.10;99.90;;;;;;5007598;28;20222;-74
2023/09/14 08:47:12;;;;;;;4.50;1.30;;;23.10;99.90;;;;;;5017401;27;20503;-74
2023/09/14 08:50:05;;;;;;;4.72;1.50;;;23.30;99.90;;;;;;5005340;28;20229;-68
2023/09/14 08:52:55;;;;;;;1.05;0.98;;;23.70;99.90;;;;;;4997954;28;20228;-70
2023/09/14 08:55:44;;;;;;;3.92;1.40;;;23.40;99.90;;;;;;5011125;28;20444;-71
2023/09/14 08:58:34;;;;;;;1.73;1.13;;;23.20;99.90;;;;;;5018516;27;20214;-71
2023/09/14 09:01:24;;;;;;;3.55;1.30;;;23.10;99.90;;;;;;5004406;27;20222;-71
2023/09/14 09:04:15;;;;;;;4.75;1.42;;;22.80;99.90;;;;;;4994833;28;20242;-72
2023/09/14 09:07:06;;;;;;;3.28;1.27;;;22.80;99.90;;;;;;4998247;28;20209;-72
2023/09/14 09:09:55;;;;;;;2.25;1.40;;;23.10;99.90;;;;;;5009033;28;20225;-70
2023/09/14 09:12:45;;;;;;;2.20;1.30;;;23.10;99.90;;;;;;4992823;28;21164;-69
2023/09/14 09:15:36;;;;;;;4.68;1.40;;;23.00;99.90;;;;;;5009477;27;20234;-71
2023/09/14 09:18:26;;;;;;;2.53;1.20;;;22.90;99.90;;;;;;5009488;28;20221;-72
2023/09/14 09:21:26;;;;;;;3.75;1.10;;;22.60;99.90;;;;;;5013083;28;20226;-69
2023/09/14 09:24:26;;;;;;;1.70;1.20;;;22.50;99.90;;;;;;5009649;28;20222;-69
2023/09/14 09:27:30;;;;;;;1.83;0.90;;;22.60;99.90;;;;;;4989577;28;20228;-69
2023/09/14 09:30:19;;;;;;;4.80;1.17;;;22.60;99.90;;;;;;5002125;28;20233;-71
2023/09/14 09:33:09;;;;;;;3.28;1.30;;;22.60;99.90;;;;;;5014478;28;20354;-69
2023/09/14 09:36:00;;;;;;;2.15;1.08;;;22.50;99.90;;;;;;5011616;27;20649;-69
2023/09/14 09:38:49;;;;;;;1.48;1.20;;;22.40;99.90;;;;;;5081984;27;20218;-69
2023/09/14 09:41:40;;;;;;;1.67;1.20;;;22.40;99.90;;;;;;5073543;27;20677;-68
2023/09/14 09:44:30;;;;;;;2.58;1.10;;;22.70;99.90;;;;;;5074584;27;20253;-68
2023/09/14 09:47:20;;;;;;;2.22;1.00;;;22.80;99.90;;;;;;5015552;28;20672;-71
2023/09/14 09:50:11;;;;;;;1.67;1.00;;;23.10;99.90;;;;;;5000084;28;20336;-68
2023/09/14 09:53:00;;;;;;;3.28;1.40;;;22.70;99.90;;;;;;5012605;28;20226;-67
2023/09/14 09:55:50;;;;;;;3.08;1.42;;;22.60;99.90;;;;;;5020424;28;20293;-68
2023/09/14 09:58:40;;;;;;;3.80;1.50;;;22.50;99.90;;;;;;4993958;28;20233;-69
2023/09/14 10:01:29;;;;;;;5.18;1.63;;;22.50;99.90;;;;;;5014394;28;20270;-70
2023/09/14 10:04:18;;;;;;;4.00;1.90;;;22.40;99.90;;;;;;5003394;27;20218;-70
2023/09/14 10:07:09;;;;;;;5.28;1.92;;;22.50;99.90;;;;;;5013851;28;21791;-72
2023/09/14 10:09:58;;;;;;;2.60;1.60;;;22.50;99.90;;;;;;5000249;28;20520;-69
2023/09/14 10:12:47;;;;;;;3.45;1.88;;;22.80;99.90;;;;;;5011533;28;20772;-69
2023/09/14 10:15:38;;;;;;;3.90;1.80;;;22.70;99.90;;;;;;5031930;27;20233;-71
2023/09/14 10:18:32;;;;;;;6.30;1.48;;;22.70;99.90;;;;;;5004783;27;20225;-69
2023/09/14 10:21:24;;;;;;;2.38;1.38;;;22.50;99.90;;;;;;5080873;27;20713;-71
2023/09/14 10:24:15;;;;;;;2.75;1.40;;;22.50;99.90;;;;;;5002970;28;20316;-69
2023/09/14 10:27:05;;;;;;;2.92;1.70;;;22.50;99.90;;;;;;5001881;28;20716;-68
2023/09/14 10:29:56;;;;;;;5.65;1.70;;;22.50;99.90;;;;;;5008795;28;20244;-70
2023/09/14 10:32:49;;;;;;;2.92;1.88;;;22.50;99.90;;;;;;5042994;27;20257;-69
2023/09/14 10:35:40;;;;;;;2.10;1.40;;;22.40;99.90;;;;;;4986573;28;20536;-69
2023/09/14 10:38:32;;;;;;;3.55;1.65;;;22.20;99.90;;;;;;5085973;27;20343;-69
2023/09/14 10:41:23;;;;;;;6.10;1.85;;;22.00;99.90;;;;;;5014305;28;20244;-71
2023/09/14 10:44:15;;;;;;;3.53;1.55;;;22.00;99.90;;;;;;5082453;27;20307;-69
2023/09/14 10:47:05;;;;;;;1.50;1.20;;;21.90;99.90;;;;;;5007230;28;20238;-69
2023/09/14 10:49:56;;;;;;;3.90;1.70;;;22.00;99.90;;;;;;5089031;27;20780;-70
2023/09/14 10:52:46;;;;;;;3.50;1.48;;;22.20;99.90;;;;;;5012013;28;20221;-69
2023/09/14 10:55:36;;;;;;;3.72;1.52;;;22.30;99.90;;;;;;4995266;28;20301;-70
2023/09/14 10:58:25;;;;;;;4.95;1.58;;;22.70;99.90;;;;;;5078781;27;20560;-70
2023/09/14 11:01:15;;;;;;;4.32;1.50;;;23.30;99.90;;;;;;5001149;28;20264;-70
2023/09/14 11:04:14;;;;;;;3.47;1.50;;;23.50;99.90;;;;;;5086626;27;20229;-70
2023/09/14 11:07:04;;;;;;;1.70;1.30;;;23.20;99.90;;;;;;5017244;27;20929;-71
2023/09/14 11:10:04;;;;;;;3.70;1.63;;;23.10;99.90;;;;;;5009972;28;20233;-70
2023/09/14 11:13:25;;;;;;;3.08;1.65;;;23.00;99.90;;;;;;5087836;27;20252;-71
2023/09/14 11:16:18;;;;;;;9.65;1.85;;;22.60;99.90;;;;;;5037993;27;20237;-73
2023/09/14 11:19:07;;;;;;;7.57;2.03;;;22.70;99.90;;;;;;5076459;27;20333;-72
2023/09/14 11:22:03;;;;;;;5.60;1.75;;;22.80;99.90;;;;;;5073890;27;20218;-72
2023/09/14 11:24:55;;;;;;;8.23;2.35;;;22.90;99.90;;;;;;5010877;28;20719;-73
2023/09/14 11:27:51;;;;;;;6.18;1.80;;;23.20;99.90;;;;;;5012491;27;20838;-73
2023/09/14 11:30:43;;;;;;;4.55;1.75;;;23.30;99.90;;;;;;4989558;28;20230;-73
2023/09/14 11:33:34;;;;;;;3.20;1.50;;;23.30;99.90;;;;;;4992072;28;20719;-71
2023/09/14 11:36:27;;;;;;;3.30;1.40;;;23.30;99.90;;;;;;5031584;27;20761;-71
2023/09/14 11:39:19;;;;;;;2.75;1.17;;;23.50;99.90;;;;;;4997922;28;21874;-72
2023/09/14 11:42:13;;;;;;;1.92;1.00;;;23.60;99.90;;;;;;5013405;27;22226;-70
2023/09/14 11:45:09;;;;;;;4.20;1.40;;;23.60;99.90;;;;;;5004814;27;20222;-71
2023/09/14 11:48:00;;;;;;;2.17;1.27;;;23.60;99.90;;;;;;5079615;27;20225;-71
2023/09/14 11:50:53;;;;;;;3.70;1.17;;;23.60;99.90;;;;;;5076466;27;20709;-71
2023/09/14 11:53:47;;;;;;;1.73;0.90;;;23.60;99.90;;;;;;5080743;27;20222;-72
2023/09/14 11:56:37;;;;;;;5.47;1.20;;;23.60;99.90;;;;;;5077986;27;20242;-73
2023/09/14 11:59:32;;;;;;;3.30;1.00;;;23.50;99.90;;;;;;5001768;28;20264;-70
2023/09/14 12:02:23;;;;;;;4.60;1.30;;;23.30;99.90;;;;;;5012446;27;20226;-71
2023/09/14 12:05:12;;;;;;;3.92;1.33;;;23.10;99.90;;;;;;5014652;27;20249;-72
2023/09/14 12:08:09;;;;;;;1.77;1.15;;;22.80;99.90;;;;;;5015753;28;20846;-71
2023/09/14 12:10:58;;;;;;;2.88;1.20;;;22.70;99.90;;;;;;5008083;28;20232;-71
2023/09/14 12:13:51;;;;;;;1.65;1.10;;;22.50;99.90;;;;;;5003933;28;20775;-70
2023/09/14 12:16:41;;;;;;;3.90;1.17;;;22.40;99.90;;;;;;5037351;28;20225;-70
2023/09/14 12:19:31;;;;;;;1.33;0.90;;;22.30;99.90;;;;;;4998465;28;20213;-69
2023/09/14 12:22:21;;;;;;;2.50;0.98;;;22.00;99.90;;;;;;4994610;27;20229;-72
2023/09/14 12:25:13;;;;;;;2.38;1.13;;;22.10;99.90;;;;;;5017409;27;20222;-70
2023/09/14 12:28:05;;;;;;;2.35;1.10;;;22.10;99.90;;;;;;5083784;27;20937;-72
2023/09/14 12:30:54;;;;;;;3.80;1.10;;;22.30;99.90;;;;;;4995509;28;20234;-72
2023/09/14 12:33:45;;;;;;;1.77;1.10;;;22.30;99.90;;;;;;4987286;28;20709;-71
2023/09/14 12:36:34;;;;;;;2.35;1.20;;;22.40;99.90;;;;;;5001186;28;20226;-70
2023/09/14 12:39:23;;;;;;;3.38;1.00;;;22.30;99.90;;;;;;5015588;28;20311;-71
2023/09/14 12:42:13;;;;;;;4.07;1.00;;;22.50;99.90;;;;;;5002906;28;20226;-72
2023/09/14 12:45:04;;;;;;;1.63;0.90;;;22.50;99.90;;;;;;5072058;27;20222;-72
2023/09/14 12:47:53;;;;;;;1.88;1.00;;;22.70;99.90;;;;;;5028380;27;20308;-73
2023/09/14 12:50:43;;;;;;;1.70;0.90;;;22.40;99.90;;;;;;4995769;28;20230;-74
2023/09/14 12:53:40;;;;;;;2.15;1.02;;;22.60;99.90;;;;;;5010003;27;20236;-73
2023/09/14 12:56:30;;;;;;;2.33;0.93;;;22.30;99.90;;;;;;5046245;27;20218;-72
2023/09/14 12:59:20;;;;;;;5.97;1.63;;;22.30;99.90;;;;;;5079732;27;20290;-72
2023/09/14 13:02:14;;;;;;;3.33;1.15;;;22.40;99.90;;;;;;5004044;28;20222;-70
2023/09/14 13:05:06;;;;;;;4.65;1.10;;;22.60;99.90;;;;;;5079077;27;20222;-71
2023/09/14 13:08:00;;;;;;;3.60;0.93;;;22.50;99.90;;;;;;5079039;27;20241;-69
2023/09/14 13:10:49;;;;;;;1.67;0.90;;;22.40;99.90;;;;;;4997442;28;20217;-73
2023/09/14 13:13:44;;;;;;;1.20;0.80;;;22.30;99.90;;;;;;5007546;28;20281;-72
2023/09/14 13:16:33;;;;;;;4.03;0.93;;;22.40;99.90;;;;;;4999814;28;20219;-75
2023/09/14 13:19:27;;;;;;;2.25;0.95;;;22.40;99.90;;;;;;5007366;28;20222;-76
2023/09/14 13:22:16;;;;;;;3.40;1.00;;;22.20;99.90;;;;;;5081848;27;20230;-74
2023/09/14 13:25:08;;;;;;;1.88;1.00;;;22.40;99.90;;;;;;5012964;28;20226;-75
2023/09/14 13:28:07;;;;;;;1.48;0.80;;;22.50;99.90;;;;;;5076312;27;20605;-72
2023/09/14 13:30:57;;;;;;;2.97;0.98;;;22.70;99.90;;;;;;5013433;27;20287;-72
2023/09/14 13:33:46;;;;;;;2.10;0.98;;;22.80;99.90;;;;;;5003215;28;20228;-71
2023/09/14 13:36:35;;;;;;;3.75;1.55;;;22.80;99.90;;;;;;4999547;28;20248;-73
2023/09/14 13:39:24;;;;;;;2.65;1.08;;;22.60;99.90;;;;;;5007938;28;20312;-75
2023/09/14 13:42:15;;;;;;;1.85;1.02;;;22.60;99.90;;;;;;5076395;27;20233;-73
2023/09/14 13:45:05;;;;;;;1.48;0.80;;;22.50;99.90;;;;;;5081297;27;20884;-73
2023/09/14 13:47:55;;;;;;;4.40;1.10;;;22.30;99.90;;;;;;4998934;28;20257;-74
2023/09/14 13:50:44;;;;;;;1.73;0.98;;;22.20;99.90;;;;;;5009872;28;20240;-72
2023/09/14 13:53:33;;;;;;;1.55;0.90;;;22.10;99.90;;;;;;5079877;27;20221;-72
2023/09/14 13:56:22;;;;;;;2.35;0.95;;;22.10;99.90;;;;;;5079031;28;20245;-71
2023/09/14 13:59:12;;;;;;;1.30;0.95;;;22.00;99.90;;;;;;5083722;28;20239;-72
2023/09/14 14:02:01;;;;;;;3.15;1.10;;;22.10;99.90;;;;;;5012021;28;20311;-71
2023/09/14 14:04:50;;;;;;;1.40;1.00;;;21.90;99.90;;;;;;5008976;27;20236;-71
2023/09/14 14:07:39;;;;;;;2.30;0.90;;;21.90;99.90;;;;;;5009558;28;20246;-71
2023/09/14 14:10:28;;;;;;;5.15;1.02;;;21.80;99.90;;;;;;5008533;28;20222;-71
2023/09/14 14:13:17;;;;;;;1.00;0.80;;;21.90;99.90;;;;;;5076338;28;20218;-72
2023/09/14 14:16:07;;;;;;;3.75;1.17;;;21.70;99.90;;;;;;5015744;28;20224;-70
2023/09/14 14:18:58;;;;;;;2.58;1.10;;;21.80;99.90;;;;;;5075793;27;20320;-68
2023/09/14 14:21:47;;;;;;;2.67;1.27;;;21.80;99.90;;;;;;5015105;28;20316;-71
2023/09/14 14:24:36;;;;;;;2.05;1.20;;;21.80;99.90;;;;;;4996249;28;20234;-72
2023/09/14 14:27:25;;;;;;;1.35;0.93;;;21.80;99.90;;;;;;5008325;28;20217;-71
2023/09/14 14:30:14;;;;;;;2.60;1.25;;;21.80;99.90;;;;;;5010028;28;20403;-71
2023/09/14 14:33:05;;;;;;;1.77;1.10;;;21.80;99.90;;;;;;5002042;28;20452;-73
2023/09/14 14:35:54;;;;;;;1.98;1.08;;;21.70;99.90;;;;;;5006784;28;20916;-72
2023/09/14 14:38:43;;;;;;;2.83;1.38;;;21.80;99.90;;;;;;5076024;28;20314;-72
2023/09/14 14:41:33;;;;;;;3.63;1.30;;;21.80;99.90;;;;;;5079426;27;20233;-74